Private Wetterstation Sandau
Wetterdaten: Donnerstag, 08.11.2012
Datum Zeit Temp. A. Feuchte A. Luftdruck Regen Wind Richtung Richtung Taupunkt Windchill
08.11.2012 00:01 9,2 C 79 % 1019,2 hPa 0,0 l/m 16,6 km/h (3 Bft) W-SW 247 5,8 C 6,7 C
08.11.2012 00:06 9,2 C 79 % 1019,2 hPa 0,0 l/m 13,3 km/h (3 Bft) W 270 5,8 C 7,2 C
08.11.2012 00:11 9,2 C 79 % 1019,3 hPa 0,0 l/m 29,5 km/h (5 Bft) W 270 5,8 C 5,6 C
08.11.2012 00:16 9,2 C 79 % 1019,1 hPa 0,0 l/m 26,3 km/h (4 Bft) W 270 5,8 C 5,8 C
08.11.2012 00:21 9,2 C 78 % 1019,2 hPa 0,0 l/m 29,2 km/h (5 Bft) W-SW 247 5,6 C 5,6 C
08.11.2012 00:26 9,2 C 78 % 1019,3 hPa 0,0 l/m 13,0 km/h (3 Bft) SW 225 5,6 C 7,2 C
08.11.2012 00:31 9,1 C 78 % 1019,0 hPa 0,0 l/m 26,3 km/h (4 Bft) W-SW 247 5,5 C 5,7 C
08.11.2012 00:36 9,1 C 78 % 1019,0 hPa 0,0 l/m 18,4 km/h (3 Bft) W 270 5,5 C 6,4 C
08.11.2012 00:41 9,1 C 78 % 1019,1 hPa 0,0 l/m 17,3 km/h (3 Bft) W-NW 292 5,5 C 6,5 C
08.11.2012 00:46 9,1 C 77 % 1019,0 hPa 0,0 l/m 18,4 km/h (3 Bft) W 270 5,3 C 6,4 C
08.11.2012 00:51 9,1 C 77 % 1019,0 hPa 0,0 l/m 23,0 km/h (4 Bft) W 270 5,3 C 6,0 C
08.11.2012 00:56 9,0 C 77 % 1018,9 hPa 0,0 l/m 17,3 km/h (3 Bft) W 270 5,2 C 6,4 C
08.11.2012 01:01 9,0 C 77 % 1018,8 hPa 0,0 l/m 19,1 km/h (3 Bft) W 270 5,2 C 6,2 C
08.11.2012 01:06 9,0 C 77 % 1018,9 hPa 0,0 l/m 23,4 km/h (4 Bft) W-SW 247 5,2 C 5,8 C
08.11.2012 01:11 9,0 C 77 % 1019,0 hPa 0,0 l/m 16,6 km/h (3 Bft) W-SW 247 5,2 C 6,5 C
08.11.2012 01:16 8,9 C 77 % 1018,9 hPa 0,0 l/m 25,6 km/h (4 Bft) W-SW 247 5,1 C 5,5 C
08.11.2012 01:21 8,9 C 77 % 1019,0 hPa 0,0 l/m 13,0 km/h (3 Bft) W 270 5,1 C 6,8 C
08.11.2012 01:26 8,9 C 77 % 1019,0 hPa 0,0 l/m 13,7 km/h (3 Bft) W-SW 247 5,1 C 6,7 C
08.11.2012 01:31 8,9 C 77 % 1019,1 hPa 0,0 l/m 18,0 km/h (3 Bft) W-SW 247 5,1 C 6,2 C
08.11.2012 01:36 8,9 C 77 % 1019,0 hPa 0,0 l/m 16,6 km/h (3 Bft) W 270 5,1 C 6,4 C
08.11.2012 01:41 8,9 C 77 % 1019,1 hPa 0,0 l/m 21,6 km/h (4 Bft) W-SW 247 5,1 C 5,8 C
08.11.2012 01:46 8,9 C 77 % 1019,0 hPa 0,0 l/m 18,4 km/h (3 Bft) SW 225 5,1 C 6,2 C
08.11.2012 01:51 8,9 C 77 % 1019,1 hPa 0,0 l/m 9,7 km/h (2 Bft) W-SW 247 5,1 C 7,4 C
08.11.2012 01:56 8,9 C 77 % 1019,1 hPa 0,0 l/m 23,8 km/h (4 Bft) W 270 5,1 C 5,6 C
08.11.2012 02:01 8,9 C 77 % 1019,0 hPa 0,0 l/m 33,5 km/h (5 Bft) W 270 5,1 C 4,9 C
08.11.2012 02:06 8,9 C 77 % 1018,9 hPa 0,0 l/m 22,3 km/h (4 Bft) W-SW 247 5,1 C 5,8 C
08.11.2012 02:11 8,9 C 77 % 1018,9 hPa 0,0 l/m 24,1 km/h (4 Bft) W 270 5,1 C 5,6 C
08.11.2012 02:16 8,9 C 77 % 1018,9 hPa 0,0 l/m 19,4 km/h (3 Bft) W-SW 247 5,1 C 6,0 C
08.11.2012 02:21 8,9 C 77 % 1018,9 hPa 0,0 l/m 7,9 km/h (2 Bft) W 270 5,1 C 7,7 C
08.11.2012 02:26 8,9 C 77 % 1018,8 hPa 0,0 l/m 21,6 km/h (4 Bft) W 270 5,1 C 5,8 C
08.11.2012 02:31 8,9 C 77 % 1018,8 hPa 0,0 l/m 33,5 km/h (5 Bft) W-SW 247 5,1 C 4,9 C
08.11.2012 02:36 8,9 C 77 % 1018,6 hPa 0,0 l/m 23,0 km/h (4 Bft) W-SW 247 5,1 C 5,7 C
08.11.2012 02:41 8,9 C 77 % 1018,6 hPa 0,0 l/m 14,8 km/h (3 Bft) W-SW 247 5,1 C 6,6 C
08.11.2012 02:46 8,9 C 77 % 1018,6 hPa 0,0 l/m 26,6 km/h (4 Bft) W 270 5,1 C 5,4 C
08.11.2012 02:51 8,9 C 77 % 1018,6 hPa 0,0 l/m 25,2 km/h (4 Bft) S-SW 202 5,1 C 5,5 C
08.11.2012 02:56 8,9 C 77 % 1018,5 hPa 0,0 l/m 13,7 km/h (3 Bft) W-SW 247 5,1 C 6,7 C
08.11.2012 03:01 8,9 C 77 % 1018,4 hPa 0,0 l/m 24,1 km/h (4 Bft) W-SW 247 5,1 C 5,6 C
08.11.2012 03:06 8,9 C 77 % 1018,2 hPa 0,0 l/m 9,7 km/h (2 Bft) W-SW 247 5,1 C 7,4 C
08.11.2012 03:11 8,9 C 77 % 1018,2 hPa 0,0 l/m 14,4 km/h (3 Bft) S-SW 202 5,1 C 6,6 C
08.11.2012 03:16 8,9 C 77 % 1018,2 hPa 0,0 l/m 28,8 km/h (4 Bft) S-SW 202 5,1 C 5,2 C
08.11.2012 03:21 8,9 C 77 % 1018,1 hPa 0,0 l/m 14,8 km/h (3 Bft) S-SW 202 5,1 C 6,6 C
08.11.2012 03:26 8,9 C 77 % 1018,0 hPa 0,0 l/m 23,0 km/h (4 Bft) SW 225 5,1 C 5,7 C
08.11.2012 03:31 8,9 C 77 % 1018,1 hPa 0,0 l/m 24,1 km/h (4 Bft) W-SW 247 5,1 C 5,6 C
08.11.2012 03:36 8,9 C 77 % 1018,0 hPa 0,0 l/m 25,2 km/h (4 Bft) W-SW 247 5,1 C 5,5 C
08.11.2012 03:41 8,9 C 77 % 1017,9 hPa 0,0 l/m 25,6 km/h (4 Bft) SW 225 5,1 C 5,5 C
08.11.2012 03:46 8,9 C 77 % 1017,9 hPa 0,0 l/m 17,3 km/h (3 Bft) W 270 5,1 C 6,3 C
08.11.2012 03:51 8,9 C 77 % 1017,8 hPa 0,0 l/m 13,3 km/h (3 Bft) S-SW 202 5,1 C 6,8 C
08.11.2012 03:56 8,8 C 77 % 1018,0 hPa 0,0 l/m 20,2 km/h (4 Bft) W 270 5,0 C 5,8 C
08.11.2012 04:01 8,8 C 77 % 1017,9 hPa 0,0 l/m 6,1 km/h (2 Bft) W-SW 247 5,0 C 8,1 C
08.11.2012 04:06 8,8 C 78 % 1017,8 hPa 0,0 l/m 9,7 km/h (2 Bft) W-NW 292 5,2 C 7,3 C
08.11.2012 04:11 8,8 C 78 % 1017,9 hPa 0,0 l/m 19,1 km/h (3 Bft) W 270 5,2 C 6,0 C
08.11.2012 04:16 8,8 C 78 % 1017,7 hPa 0,0 l/m 17,6 km/h (3 Bft) W-NW 292 5,2 C 6,1 C
08.11.2012 04:21 8,8 C 78 % 1017,6 hPa 0,0 l/m 12,2 km/h (2 Bft) S-SW 202 5,2 C 6,8 C
08.11.2012 04:26 8,8 C 78 % 1017,6 hPa 0,0 l/m 14,0 km/h (3 Bft) W-SW 247 5,2 C 6,6 C
08.11.2012 04:31 8,8 C 78 % 1017,6 hPa 0,0 l/m 19,1 km/h (3 Bft) W-SW 247 5,2 C 6,0 C
08.11.2012 04:36 8,8 C 78 % 1017,5 hPa 0,0 l/m 30,6 km/h (5 Bft) W-SW 247 5,2 C 5,0 C
08.11.2012 04:41 8,8 C 78 % 1017,5 hPa 0,0 l/m 32,8 km/h (5 Bft) W 270 5,2 C 4,8 C
08.11.2012 04:46 8,9 C 78 % 1017,4 hPa 0,0 l/m 15,1 km/h (3 Bft) W 270 5,3 C 6,5 C
08.11.2012 04:51 8,8 C 79 % 1017,5 hPa 0,0 l/m 25,9 km/h (4 Bft) W-SW 247 5,4 C 5,3 C
08.11.2012 04:56 8,9 C 79 % 1017,3 hPa 0,0 l/m 11,5 km/h (2 Bft) W-SW 247 5,5 C 7,1 C
08.11.2012 05:01 8,9 C 79 % 1017,2 hPa 0,0 l/m 17,3 km/h (3 Bft) W 270 5,5 C 6,3 C
08.11.2012 05:06 8,9 C 79 % 1017,2 hPa 0,0 l/m 10,1 km/h (2 Bft) W 270 5,5 C 7,3 C
08.11.2012 05:11 8,9 C 79 % 1017,2 hPa 0,0 l/m 9,7 km/h (2 Bft) SW 225 5,5 C 7,4 C
08.11.2012 05:16 8,9 C 79 % 1017,2 hPa 0,0 l/m 15,8 km/h (3 Bft) S-SW 202 5,5 C 6,5 C
08.11.2012 05:21 8,9 C 78 % 1017,2 hPa 0,0 l/m 16,9 km/h (3 Bft) W 270 5,3 C 6,3 C
08.11.2012 05:26 8,9 C 78 % 1017,1 hPa 0,0 l/m 23,4 km/h (4 Bft) W 270 5,3 C 5,7 C
08.11.2012 05:31 8,9 C 78 % 1016,9 hPa 0,0 l/m 19,4 km/h (3 Bft) W-SW 247 5,3 C 6,0 C
08.11.2012 05:36 8,9 C 78 % 1017,1 hPa 0,0 l/m 19,8 km/h (3 Bft) W-SW 247 5,3 C 6,0 C
08.11.2012 05:41 8,9 C 78 % 1016,9 hPa 0,0 l/m 26,3 km/h (4 Bft) W 270 5,3 C 5,4 C
08.11.2012 05:46 9,0 C 78 % 1016,9 hPa 0,0 l/m 11,2 km/h (2 Bft) S-SW 202 5,4 C 7,2 C
08.11.2012 05:51 9,0 C 78 % 1016,9 hPa 0,0 l/m 22,3 km/h (4 Bft) W-SW 247 5,4 C 5,9 C
08.11.2012 05:56 8,9 C 78 % 1016,8 hPa 0,0 l/m 19,1 km/h (3 Bft) W-SW 247 5,3 C 6,1 C
08.11.2012 06:01 9,0 C 78 % 1016,7 hPa 0,0 l/m 9,7 km/h (2 Bft) S-SW 202 5,4 C 7,5 C
08.11.2012 06:06 8,9 C 78 % 1016,8 hPa 0,0 l/m 19,1 km/h (3 Bft) W 270 5,3 C 6,1 C
08.11.2012 06:11 8,9 C 78 % 1016,7 hPa 0,0 l/m 23,4 km/h (4 Bft) W-SW 247 5,3 C 5,7 C
08.11.2012 06:16 9,0 C 78 % 1016,6 hPa 0,0 l/m 20,2 km/h (4 Bft) W-NW 292 5,4 C 6,1 C
08.11.2012 06:21 9,0 C 78 % 1016,8 hPa 0,0 l/m 33,8 km/h (5 Bft) W 270 5,4 C 5,0 C
08.11.2012 06:26 9,1 C 78 % 1016,6 hPa 0,0 l/m 10,1 km/h (2 Bft) W-SW 247 5,5 C 7,5 C
08.11.2012 06:31 9,1 C 78 % 1016,5 hPa 0,0 l/m 8,3 km/h (2 Bft) NW 315 5,5 C 7,9 C
08.11.2012 06:36 9,1 C 78 % 1016,3 hPa 0,0 l/m 22,3 km/h (4 Bft) W-SW 247 5,5 C 6,0 C
08.11.2012 06:41 9,0 C 77 % 1016,4 hPa 0,0 l/m 8,3 km/h (2 Bft) W 270 5,2 C 7,8 C
08.11.2012 06:46 9,1 C 77 % 1016,5 hPa 0,0 l/m 24,5 km/h (4 Bft) SW 225 5,3 C 5,8 C
08.11.2012 06:51 9,1 C 77 % 1016,4 hPa 0,0 l/m 18,4 km/h (3 Bft) W 270 5,3 C 6,4 C
08.11.2012 06:56 9,1 C 77 % 1016,3 hPa 0,0 l/m 10,4 km/h (2 Bft) SW 225 5,3 C 7,5 C
08.11.2012 07:01 9,1 C 77 % 1016,3 hPa 0,0 l/m 13,3 km/h (3 Bft) W 270 5,3 C 7,0 C
08.11.2012 07:06 9,1 C 77 % 1016,2 hPa 0,0 l/m 11,9 km/h (2 Bft) W 270 5,3 C 7,2 C
08.11.2012 07:11 9,1 C 77 % 1016,3 hPa 0,0 l/m 15,1 km/h (3 Bft) W-SW 247 5,3 C 6,8 C
08.11.2012 07:16 9,1 C 77 % 1016,4 hPa 0,0 l/m 14,4 km/h (3 Bft) W-SW 247 5,3 C 6,9 C
08.11.2012 07:21 9,1 C 77 % 1016,1 hPa 0,0 l/m 19,8 km/h (3 Bft) W-SW 247 5,3 C 6,3 C
08.11.2012 07:26 9,1 C 77 % 1016,1 hPa 0,0 l/m 18,4 km/h (3 Bft) W 270 5,3 C 6,4 C
08.11.2012 07:31 9,1 C 77 % 1016,1 hPa 0,0 l/m 16,6 km/h (3 Bft) W-SW 247 5,3 C 6,6 C
08.11.2012 07:36 9,1 C 77 % 1016,1 hPa 0,0 l/m 10,1 km/h (2 Bft) W-SW 247 5,3 C 7,5 C
08.11.2012 07:41 9,1 C 77 % 1016,1 hPa 0,0 l/m 23,8 km/h (4 Bft) W 270 5,3 C 5,9 C
08.11.2012 07:46 9,1 C 77 % 1016,0 hPa 0,0 l/m 9,7 km/h (2 Bft) W-SW 247 5,3 C 7,6 C
08.11.2012 07:51 9,2 C 77 % 1015,9 hPa 0,0 l/m 19,1 km/h (3 Bft) W-SW 247 5,4 C 6,5 C
08.11.2012 07:56 9,2 C 77 % 1016,0 hPa 0,0 l/m 13,0 km/h (3 Bft) W 270 5,4 C 7,2 C
08.11.2012 08:01 9,2 C 77 % 1016,1 hPa 0,0 l/m 20,9 km/h (4 Bft) W 270 5,4 C 6,3 C
08.11.2012 08:06 9,2 C 77 % 1016,0 hPa 0,0 l/m 25,2 km/h (4 Bft) W 270 5,4 C 5,9 C
08.11.2012 08:11 9,2 C 77 % 1016,0 hPa 0,0 l/m 12,2 km/h (2 Bft) W-NW 292 5,4 C 7,3 C
08.11.2012 08:16 9,2 C 77 % 1015,8 hPa 0,0 l/m 23,0 km/h (4 Bft) W-NW 292 5,4 C 6,1 C
08.11.2012 08:21 9,2 C 77 % 1015,9 hPa 0,0 l/m 18,0 km/h (3 Bft) W-SW 247 5,4 C 6,6 C
08.11.2012 08:26 9,3 C 77 % 1016,0 hPa 0,0 l/m 6,1 km/h (2 Bft) W 270 5,5 C 8,6 C
08.11.2012 08:31 9,3 C 77 % 1016,1 hPa 0,0 l/m 9,7 km/h (2 Bft) S-SW 202 5,5 C 7,8 C
08.11.2012 08:36 9,3 C 77 % 1016,0 hPa 0,0 l/m 15,8 km/h (3 Bft) W-SW 247 5,5 C 7,0 C
08.11.2012 08:41 9,3 C 77 % 1016,1 hPa 0,0 l/m 13,7 km/h (3 Bft) W 270 5,5 C 7,2 C
08.11.2012 08:46 9,3 C 77 % 1016,0 hPa 0,0 l/m 10,8 km/h (2 Bft) S-SO 157 5,5 C 7,7 C
08.11.2012 08:51 9,3 C 77 % 1016,0 hPa 0,0 l/m 9,0 km/h (2 Bft) W-SW 247 5,5 C 8,0 C
08.11.2012 08:56 9,3 C 77 % 1015,8 hPa 0,0 l/m 22,0 km/h (4 Bft) W-SW 247 5,5 C 6,3 C
08.11.2012 09:01 9,3 C 77 % 1016,0 hPa 0,0 l/m 21,6 km/h (4 Bft) W 270 5,5 C 6,3 C
08.11.2012 09:06 9,3 C 77 % 1015,9 hPa 0,0 l/m 19,4 km/h (3 Bft) W-SW 247 5,5 C 6,6 C
08.11.2012 09:11 9,4 C 77 % 1015,9 hPa 0,0 l/m 10,8 km/h (2 Bft) W-SW 247 5,6 C 7,8 C
08.11.2012 09:16 9,4 C 77 % 1016,0 hPa 0,0 l/m 21,2 km/h (4 Bft) W-SW 247 5,6 C 6,5 C
08.11.2012 09:21 9,4 C 77 % 1016,0 hPa 0,0 l/m 13,7 km/h (3 Bft) W 270 5,6 C 7,3 C
08.11.2012 09:26 9,4 C 77 % 1016,1 hPa 0,0 l/m 19,8 km/h (3 Bft) W 270 5,6 C 6,6 C
08.11.2012 09:31 9,4 C 77 % 1015,9 hPa 0,0 l/m 18,4 km/h (3 Bft) W 270 5,6 C 6,8 C
08.11.2012 09:36 9,5 C 77 % 1015,8 hPa 0,0 l/m 11,5 km/h (2 Bft) W 270 5,7 C 7,8 C
08.11.2012 09:41 9,5 C 77 % 1015,8 hPa 0,0 l/m 14,0 km/h (3 Bft) SW 225 5,7 C 7,4 C
08.11.2012 09:46 9,4 C 77 % 1015,8 hPa 0,0 l/m 31,7 km/h (5 Bft) W-SW 247 5,6 C 5,7 C
08.11.2012 09:51 9,5 C 77 % 1015,9 hPa 0,0 l/m 10,1 km/h (2 Bft) W 270 5,7 C 8,0 C
08.11.2012 09:56 9,5 C 77 % 1015,9 hPa 0,0 l/m 10,8 km/h (2 Bft) W-NW 292 5,7 C 7,9 C
08.11.2012 10:01 9,5 C 77 % 1015,9 hPa 0,0 l/m 15,8 km/h (3 Bft) W 270 5,7 C 7,2 C
08.11.2012 10:06 9,5 C 77 % 1015,8 hPa 0,0 l/m 19,4 km/h (3 Bft) W-SW 247 5,7 C 6,8 C
08.11.2012 10:11 9,6 C 77 % 1016,0 hPa 0,0 l/m 23,0 km/h (4 Bft) W-SW 247 5,8 C 6,6 C
08.11.2012 10:16 9,6 C 76 % 1015,9 hPa 0,0 l/m 27,4 km/h (4 Bft) W-SW 247 5,6 C 6,2 C
08.11.2012 10:21 9,7 C 76 % 1015,9 hPa 0,0 l/m 20,5 km/h (4 Bft) W-SW 247 5,7 C 6,9 C
08.11.2012 10:26 9,8 C 76 % 1015,7 hPa 0,0 l/m 13,3 km/h (3 Bft) W-SW 247 5,8 C 7,9 C
08.11.2012 10:31 9,8 C 76 % 1015,7 hPa 0,0 l/m 13,7 km/h (3 Bft) S-SW 202 5,8 C 7,8 C
08.11.2012 10:36 9,9 C 76 % 1015,8 hPa 0,0 l/m 20,5 km/h (4 Bft) W-SW 247 5,9 C 7,2 C
08.11.2012 10:41 9,9 C 76 % 1015,9 hPa 0,0 l/m 13,7 km/h (3 Bft) W 270 5,9 C 8,0 C
08.11.2012 10:46 9,8 C 76 % 1016,0 hPa 0,0 l/m 14,0 km/h (3 Bft) W-SW 247 5,8 C 7,8 C
08.11.2012 10:51 9,8 C 76 % 1016,1 hPa 0,0 l/m 16,9 km/h (3 Bft) W 270 5,8 C 7,4 C
08.11.2012 10:56 9,8 C 76 % 1015,9 hPa 0,0 l/m 18,0 km/h (3 Bft) W 270 5,8 C 7,3 C
08.11.2012 11:01 9,8 C 76 % 1015,8 hPa 0,0 l/m 13,7 km/h (3 Bft) W-NW 292 5,8 C 7,8 C
08.11.2012 11:06 9,8 C 76 % 1016,0 hPa 0,0 l/m 14,8 km/h (3 Bft) W-SW 247 5,8 C 7,7 C
08.11.2012 11:11 9,8 C 76 % 1015,8 hPa 0,0 l/m 19,1 km/h (3 Bft) SW 225 5,8 C 7,2 C
08.11.2012 11:16 9,8 C 76 % 1015,6 hPa 0,0 l/m 7,9 km/h (2 Bft) W 270 5,8 C 8,8 C
08.11.2012 11:21 9,9 C 77 % 1015,7 hPa 0,0 l/m 23,0 km/h (4 Bft) S-SW 202 6,1 C 7,0 C
08.11.2012 11:26 9,9 C 77 % 1015,8 hPa 0,0 l/m 11,5 km/h (2 Bft) W 270 6,1 C 8,3 C
08.11.2012 11:31 9,9 C 76 % 1015,8 hPa 0,0 l/m 19,4 km/h (3 Bft) W 270 5,9 C 7,3 C
08.11.2012 11:36 9,9 C 76 % 1015,6 hPa 0,0 l/m 7,6 km/h (2 Bft) W 270 5,9 C 9,0 C
08.11.2012 11:41 9,9 C 76 % 1015,6 hPa 0,0 l/m 10,1 km/h (2 Bft) W-SW 247 5,9 C 8,5 C
08.11.2012 11:46 9,9 C 77 % 1015,6 hPa 0,0 l/m 15,5 km/h (3 Bft) W-SW 247 6,1 C 7,7 C
08.11.2012 11:51 9,8 C 77 % 1015,6 hPa 0,0 l/m 26,6 km/h (4 Bft) W 270 6,0 C 6,6 C
08.11.2012 11:56 9,8 C 77 % 1015,6 hPa 0,0 l/m 14,4 km/h (3 Bft) W-SW 247 6,0 C 7,7 C
08.11.2012 12:01 9,8 C 77 % 1015,6 hPa 0,0 l/m 18,4 km/h (3 Bft) W-SW 247 6,0 C 7,3 C
08.11.2012 12:06 9,9 C 77 % 1015,5 hPa 0,0 l/m 14,8 km/h (3 Bft) W-SW 247 6,1 C 7,8 C
08.11.2012 12:11 9,9 C 77 % 1015,5 hPa 0,0 l/m 18,0 km/h (3 Bft) W 270 6,1 C 7,5 C
08.11.2012 12:16 9,9 C 77 % 1015,4 hPa 0,0 l/m 26,6 km/h (4 Bft) W 270 6,1 C 6,7 C
08.11.2012 12:21 9,9 C 77 % 1015,3 hPa 0,0 l/m 19,8 km/h (3 Bft) W-SW 247 6,1 C 7,3 C
08.11.2012 12:26 9,9 C 77 % 1015,3 hPa 0,0 l/m 21,6 km/h (4 Bft) SW 225 6,1 C 7,1 C
08.11.2012 12:31 9,9 C 77 % 1015,3 hPa 0,0 l/m 11,5 km/h (2 Bft) W-SW 247 6,1 C 8,3 C
08.11.2012 12:36 9,9 C 77 % 1015,2 hPa 0,0 l/m 24,1 km/h (4 Bft) W 270 6,1 C 6,9 C
08.11.2012 12:41 10,0 C 77 % 1015,3 hPa 0,0 l/m 19,4 km/h (3 Bft) W-SW 247 6,2 C 7,4 C
08.11.2012 12:46 9,9 C 77 % 1015,3 hPa 0,0 l/m 24,8 km/h (4 Bft) W-SW 247 6,1 C 6,8 C
08.11.2012 12:51 9,9 C 77 % 1015,2 hPa 0,0 l/m 27,4 km/h (4 Bft) W 270 6,1 C 6,6 C
08.11.2012 12:56 9,9 C 77 % 1015,1 hPa 0,0 l/m 16,2 km/h (3 Bft) W 270 6,1 C 7,6 C
08.11.2012 13:01 9,9 C 78 % 1014,9 hPa 0,0 l/m 10,4 km/h (2 Bft) W 270 6,2 C 8,4 C
08.11.2012 13:06 9,9 C 78 % 1015,2 hPa 0,0 l/m 12,6 km/h (3 Bft) W 270 6,2 C 8,1 C
08.11.2012 13:11 9,9 C 78 % 1015,1 hPa 0,0 l/m 19,4 km/h (3 Bft) W 270 6,2 C 7,3 C
08.11.2012 13:16 9,9 C 78 % 1014,8 hPa 0,0 l/m 16,9 km/h (3 Bft) SW 225 6,2 C 7,6 C
08.11.2012 13:21 9,9 C 78 % 1014,9 hPa 0,0 l/m 21,2 km/h (4 Bft) W-SW 247 6,2 C 7,1 C
08.11.2012 13:26 9,9 C 78 % 1014,9 hPa 0,0 l/m 17,3 km/h (3 Bft) S-SW 202 6,2 C 7,5 C
08.11.2012 13:31 9,9 C 78 % 1014,8 hPa 0,0 l/m 17,3 km/h (3 Bft) W 270 6,2 C 7,5 C
08.11.2012 13:36 9,9 C 78 % 1014,8 hPa 0,0 l/m 13,7 km/h (3 Bft) W 270 6,2 C 8,0 C
08.11.2012 13:41 9,9 C 78 % 1014,8 hPa 0,0 l/m 11,2 km/h (2 Bft) W 270 6,2 C 8,3 C
08.11.2012 13:46 9,9 C 78 % 1014,7 hPa 0,0 l/m 16,2 km/h (3 Bft) W-NW 292 6,2 C 7,6 C
08.11.2012 13:51 9,9 C 78 % 1014,7 hPa 0,0 l/m 15,5 km/h (3 Bft) W-SW 247 6,2 C 7,7 C
08.11.2012 13:56 9,9 C 78 % 1014,6 hPa 0,0 l/m 9,7 km/h (2 Bft) W-SW 247 6,2 C 8,6 C
08.11.2012 14:01 9,9 C 78 % 1014,6 hPa 0,0 l/m 13,7 km/h (3 Bft) W 270 6,2 C 8,0 C
08.11.2012 14:06 9,9 C 79 % 1014,5 hPa 0,0 l/m 11,9 km/h (2 Bft) W 270 6,4 C 8,2 C
08.11.2012 14:11 9,9 C 79 % 1014,5 hPa 0,0 l/m 12,2 km/h (2 Bft) W-SW 247 6,4 C 8,2 C
08.11.2012 14:16 9,9 C 80 % 1014,7 hPa 0,0 l/m 16,6 km/h (3 Bft) S 180 6,6 C 7,6 C
08.11.2012 14:21 9,8 C 80 % 1014,7 hPa 0,0 l/m 17,6 km/h (3 Bft) W-SW 247 6,5 C 7,4 C
08.11.2012 14:26 9,6 C 81 % 1014,5 hPa 0,0 l/m 11,2 km/h (2 Bft) W-SW 247 6,5 C 8,0 C
08.11.2012 14:31 9,5 C 82 % 1014,5 hPa 0,0 l/m 9,0 km/h (2 Bft) W 270 6,6 C 8,2 C
08.11.2012 14:36 9,4 C 83 % 1014,4 hPa 0,0 l/m 19,4 km/h (3 Bft) SW 225 6,7 C 6,7 C
08.11.2012 14:41 9,3 C 83 % 1014,5 hPa 0,0 l/m 17,6 km/h (3 Bft) W 270 6,6 C 6,7 C
08.11.2012 14:46 9,3 C 83 % 1014,5 hPa 0,0 l/m 12,6 km/h (3 Bft) W-SW 247 6,6 C 7,4 C
08.11.2012 14:51 9,4 C 83 % 1014,3 hPa 0,0 l/m 23,8 km/h (4 Bft) W 270 6,7 C 6,3 C
08.11.2012 14:56 9,4 C 83 % 1014,2 hPa 0,0 l/m 10,4 km/h (2 Bft) W-SW 247 6,7 C 7,8 C
08.11.2012 15:01 9,4 C 83 % 1014,3 hPa 0,0 l/m 13,0 km/h (3 Bft) W-SW 247 6,7 C 7,4 C
08.11.2012 15:06 9,4 C 83 % 1014,1 hPa 0,0 l/m 18,0 km/h (3 Bft) W-SW 247 6,7 C 6,8 C
08.11.2012 15:11 9,4 C 83 % 1014,2 hPa 0,0 l/m 15,5 km/h (3 Bft) W-SW 247 6,7 C 7,1 C
08.11.2012 15:16 9,4 C 83 % 1014,0 hPa 0,0 l/m 8,6 km/h (2 Bft) W-SW 247 6,7 C 8,2 C
08.11.2012 15:21 9,3 C 83 % 1014,0 hPa 0,0 l/m 9,4 km/h (2 Bft) W-SW 247 6,6 C 7,9 C
08.11.2012 15:26 9,3 C 84 % 1014,1 hPa 0,0 l/m 9,0 km/h (2 Bft) W 270 6,7 C 8,0 C
08.11.2012 15:31 9,2 C 84 % 1014,3 hPa 0,0 l/m 13,0 km/h (3 Bft) W-SW 247 6,6 C 7,2 C
08.11.2012 15:36 9,2 C 84 % 1013,9 hPa 0,0 l/m 19,8 km/h (3 Bft) SW 225 6,6 C 6,4 C
08.11.2012 15:41 9,2 C 84 % 1013,9 hPa 0,0 l/m 17,6 km/h (3 Bft) W 270 6,6 C 6,6 C
08.11.2012 15:46 9,2 C 84 % 1014,0 hPa 0,0 l/m 14,8 km/h (3 Bft) SW 225 6,6 C 7,0 C
08.11.2012 15:51 9,2 C 84 % 1013,9 hPa 0,0 l/m 15,1 km/h (3 Bft) SW 225 6,6 C 6,9 C
08.11.2012 15:56 9,1 C 84 % 1013,8 hPa 0,0 l/m 9,4 km/h (2 Bft) W-SW 247 6,5 C 7,7 C
08.11.2012 16:01 9,1 C 84 % 1013,6 hPa 0,0 l/m 11,2 km/h (2 Bft) W-SW 247 6,5 C 7,4 C
08.11.2012 16:06 9,1 C 84 % 1013,7 hPa 0,0 l/m 11,2 km/h (2 Bft) W-SW 247 6,5 C 7,4 C
08.11.2012 16:11 9,1 C 84 % 1013,5 hPa 0,0 l/m 13,0 km/h (3 Bft) W-SW 247 6,5 C 7,1 C
08.11.2012 16:16 9,0 C 84 % 1013,5 hPa 0,0 l/m 13,7 km/h (3 Bft) W 270 6,4 C 6,9 C
08.11.2012 16:21 9,0 C 84 % 1013,5 hPa 0,0 l/m 7,2 km/h (2 Bft) W 270 6,4 C 8,0 C
08.11.2012 16:26 9,0 C 84 % 1013,5 hPa 0,0 l/m 10,1 km/h (2 Bft) SW 225 6,4 C 7,4 C
08.11.2012 16:31 9,0 C 84 % 1013,7 hPa 0,0 l/m 6,1 km/h (2 Bft) W-SW 247 6,4 C 8,3 C
08.11.2012 16:36 9,0 C 84 % 1013,6 hPa 0,0 l/m 10,8 km/h (2 Bft) W-SW 247 6,4 C 7,3 C
08.11.2012 16:41 8,9 C 85 % 1013,7 hPa 0,0 l/m 12,6 km/h (3 Bft) W 270 6,5 C 6,9 C
08.11.2012 16:46 8,9 C 85 % 1013,6 hPa 0,0 l/m 26,6 km/h (4 Bft) W 270 6,5 C 5,4 C
08.11.2012 16:51 8,9 C 85 % 1013,6 hPa 0,0 l/m 13,3 km/h (3 Bft) W-SW 247 6,5 C 6,8 C
08.11.2012 16:56 8,9 C 85 % 1013,7 hPa 0,0 l/m 10,4 km/h (2 Bft) W-SW 247 6,5 C 7,2 C
08.11.2012 17:01 9,0 C 84 % 1013,8 hPa 0,0 l/m 7,9 km/h (2 Bft) W-SW 247 6,4 C 7,9 C
08.11.2012 17:06 9,0 C 84 % 1013,7 hPa 0,0 l/m 5,8 km/h (2 Bft) S-SW 202 6,4 C 8,4 C
08.11.2012 17:11 9,0 C 84 % 1013,6 hPa 0,0 l/m 6,5 km/h (2 Bft) S-SW 202 6,4 C 8,2 C
08.11.2012 17:16 9,0 C 84 % 1013,6 hPa 0,0 l/m 6,8 km/h (2 Bft) S-SW 202 6,4 C 8,1 C
08.11.2012 17:21 9,0 C 84 % 1013,5 hPa 0,0 l/m 10,4 km/h (2 Bft) SW 225 6,4 C 7,4 C
08.11.2012 17:26 9,0 C 84 % 1013,6 hPa 0,0 l/m 9,4 km/h (2 Bft) W 270 6,4 C 7,5 C
08.11.2012 17:31 9,0 C 84 % 1013,5 hPa 0,0 l/m 20,5 km/h (4 Bft) W 270 6,4 C 6,1 C
08.11.2012 17:36 9,1 C 84 % 1013,6 hPa 0,0 l/m 15,5 km/h (3 Bft) W 270 6,5 C 6,7 C
08.11.2012 17:41 9,1 C 84 % 1013,5 hPa 0,0 l/m 9,4 km/h (2 Bft) S-SW 202 6,5 C 7,7 C
08.11.2012 17:46 9,1 C 84 % 1013,6 hPa 0,0 l/m 15,8 km/h (3 Bft) W-SW 247 6,5 C 6,7 C
08.11.2012 17:51 9,1 C 84 % 1013,7 hPa 0,0 l/m 12,2 km/h (2 Bft) W-SW 247 6,5 C 7,2 C
08.11.2012 17:56 9,1 C 84 % 1013,6 hPa 0,0 l/m 15,8 km/h (3 Bft) W-SW 247 6,5 C 6,7 C
08.11.2012 18:01 9,1 C 84 % 1013,6 hPa 0,0 l/m 17,3 km/h (3 Bft) W 270 6,5 C 6,5 C
08.11.2012 18:06 9,1 C 84 % 1013,6 hPa 0,0 l/m 10,1 km/h (2 Bft) S-SW 202 6,5 C 7,5 C
08.11.2012 18:11 9,1 C 84 % 1013,9 hPa 0,0 l/m 7,9 km/h (2 Bft) SW 225 6,5 C 8,0 C
08.11.2012 18:16 9,1 C 84 % 1013,9 hPa 0,0 l/m 21,6 km/h (4 Bft) W-SW 247 6,5 C 6,1 C
08.11.2012 18:21 9,1 C 84 % 1013,9 hPa 0,0 l/m 15,1 km/h (3 Bft) SW 225 6,5 C 6,8 C
08.11.2012 18:26 9,1 C 84 % 1013,8 hPa 0,0 l/m 16,9 km/h (3 Bft) W 270 6,5 C 6,6 C
08.11.2012 18:31 9,1 C 84 % 1013,8 hPa 0,0 l/m 23,8 km/h (4 Bft) SW 225 6,5 C 5,9 C
08.11.2012 18:36 9,1 C 84 % 1013,8 hPa 0,0 l/m 12,2 km/h (2 Bft) W-SW 247 6,5 C 7,2 C
08.11.2012 18:41 9,1 C 84 % 1013,7 hPa 0,0 l/m 10,1 km/h (2 Bft) SW 225 6,5 C 7,5 C
08.11.2012 18:46 9,1 C 84 % 1013,8 hPa 0,0 l/m 16,9 km/h (3 Bft) W-SW 247 6,5 C 6,6 C
08.11.2012 18:51 9,1 C 84 % 1013,7 hPa 0,0 l/m 4,7 km/h (1 Bft) W 270 6,5 C 8,8 C
08.11.2012 18:56 9,1 C 84 % 1013,7 hPa 0,0 l/m 24,5 km/h (4 Bft) W-SW 247 6,5 C 5,8 C
08.11.2012 19:01 9,1 C 84 % 1013,7 hPa 0,0 l/m 22,0 km/h (4 Bft) W-SW 247 6,5 C 6,0 C
08.11.2012 19:06 9,2 C 84 % 1013,5 hPa 0,0 l/m 10,1 km/h (2 Bft) W 270 6,6 C 7,7 C
08.11.2012 19:11 9,2 C 84 % 1013,6 hPa 0,0 l/m 15,8 km/h (3 Bft) SW 225 6,6 C 6,8 C
08.11.2012 19:16 9,2 C 84 % 1013,7 hPa 0,0 l/m 15,5 km/h (3 Bft) W 270 6,6 C 6,9 C
08.11.2012 19:21 9,2 C 84 % 1013,7 hPa 0,0 l/m 13,0 km/h (3 Bft) W-SW 247 6,6 C 7,2 C
08.11.2012 19:26 9,2 C 84 % 1013,6 hPa 0,0 l/m 11,5 km/h (2 Bft) W 270 6,6 C 7,4 C
08.11.2012 19:31 9,2 C 84 % 1013,6 hPa 0,0 l/m 13,3 km/h (3 Bft) W-SW 247 6,6 C 7,2 C
08.11.2012 19:36 9,2 C 84 % 1013,6 hPa 0,0 l/m 12,6 km/h (3 Bft) W 270 6,6 C 7,3 C
08.11.2012 19:41 9,2 C 84 % 1013,5 hPa 0,0 l/m 11,5 km/h (2 Bft) W 270 6,6 C 7,4 C
08.11.2012 19:46 9,2 C 84 % 1013,6 hPa 0,0 l/m 10,4 km/h (2 Bft) W-SW 247 6,6 C 7,6 C
08.11.2012 19:51 9,2 C 84 % 1013,6 hPa 0,0 l/m 14,0 km/h (3 Bft) SW 225 6,6 C 7,1 C
08.11.2012 19:56 9,2 C 84 % 1013,8 hPa 0,0 l/m 18,7 km/h (3 Bft) W 270 6,6 C 6,5 C
08.11.2012 20:01 9,2 C 84 % 1013,7 hPa 0,0 l/m 17,3 km/h (3 Bft) W 270 6,6 C 6,7 C
08.11.2012 20:06 9,2 C 84 % 1013,7 hPa 0,0 l/m 16,6 km/h (3 Bft) SW 225 6,6 C 6,7 C
08.11.2012 20:11 9,2 C 84 % 1013,7 hPa 0,0 l/m 12,6 km/h (3 Bft) W-SW 247 6,6 C 7,3 C
08.11.2012 20:16 9,2 C 84 % 1013,8 hPa 0,0 l/m 26,3 km/h (4 Bft) W-SW 247 6,6 C 5,8 C
08.11.2012 20:21 9,2 C 84 % 1013,7 hPa 0,0 l/m 21,6 km/h (4 Bft) W 270 6,6 C 6,2 C
08.11.2012 20:26 9,2 C 84 % 1013,7 hPa 0,0 l/m 10,8 km/h (2 Bft) W-SW 247 6,6 C 7,5 C
08.11.2012 20:31 9,2 C 84 % 1013,7 hPa 0,0 l/m 11,9 km/h (2 Bft) W 270 6,6 C 7,4 C
08.11.2012 20:36 9,2 C 84 % 1013,8 hPa 0,0 l/m 23,0 km/h (4 Bft) W-SW 247 6,6 C 6,1 C
08.11.2012 20:41 9,2 C 84 % 1013,8 hPa 0,0 l/m 20,9 km/h (4 Bft) W 270 6,6 C 6,3 C
08.11.2012 20:46 9,2 C 84 % 1013,7 hPa 0,0 l/m 18,4 km/h (3 Bft) W 270 6,6 C 6,5 C
08.11.2012 20:51 9,2 C 84 % 1013,8 hPa 0,0 l/m 10,4 km/h (2 Bft) W 270 6,6 C 7,6 C
08.11.2012 20:56 9,1 C 84 % 1013,8 hPa 0,0 l/m 14,8 km/h (3 Bft) NW 315 6,5 C 6,8 C
08.11.2012 21:01 9,1 C 85 % 1013,8 hPa 0,0 l/m 3,6 km/h (1 Bft) W 270 6,7 C 9,1 C
08.11.2012 21:06 9,0 C 85 % 1013,8 hPa 0,0 l/m 10,8 km/h (2 Bft) NW 315 6,6 C 7,3 C
08.11.2012 21:11 8,9 C 86 % 1013,8 hPa 0,0 l/m 3,6 km/h (1 Bft) W 270 6,7 C 8,9 C
08.11.2012 21:16 8,9 C 87 % 1013,8 hPa 0,0 l/m 10,8 km/h (2 Bft) W-SW 247 6,9 C 7,2 C
08.11.2012 21:21 8,8 C 87 % 1013,8 hPa 0,0 l/m 18,0 km/h (3 Bft) W 270 6,8 C 6,1 C
08.11.2012 21:26 8,8 C 87 % 1013,8 hPa 0,0 l/m 11,9 km/h (2 Bft) W 270 6,8 C 6,9 C
08.11.2012 21:31 8,6 C 88 % 1013,9 hPa 0,0 l/m 8,6 km/h (2 Bft) W 270 6,7 C 7,2 C
08.11.2012 21:36 8,6 C 88 % 1013,8 hPa 0,0 l/m 5,8 km/h (2 Bft) W 270 6,7 C 7,9 C
08.11.2012 21:41 8,6 C 88 % 1013,8 hPa 0,0 l/m 12,2 km/h (2 Bft) W-SW 247 6,7 C 6,6 C
08.11.2012 21:46 8,6 C 88 % 1013,8 hPa 0,0 l/m 5,0 km/h (1 Bft) W 270 6,7 C 8,2 C
08.11.2012 21:51 8,6 C 88 % 1013,9 hPa 0,0 l/m 16,2 km/h (3 Bft) W 270 6,7 C 6,0 C
08.11.2012 21:56 8,6 C 88 % 1013,9 hPa 0,0 l/m 18,4 km/h (3 Bft) W 270 6,7 C 5,8 C
08.11.2012 22:01 8,7 C 87 % 1013,8 hPa 0,0 l/m 13,7 km/h (3 Bft) W-SW 247 6,7 C 6,5 C
08.11.2012 22:06 8,8 C 87 % 1013,8 hPa 0,0 l/m 15,5 km/h (3 Bft) SW 225 6,8 C 6,4 C
08.11.2012 22:11 8,8 C 87 % 1013,8 hPa 0,0 l/m 12,2 km/h (2 Bft) W 270 6,8 C 6,8 C
08.11.2012 22:16 8,8 C 87 % 1014,0 hPa 0,0 l/m 7,9 km/h (2 Bft) S-SW 202 6,8 C 7,6 C
08.11.2012 22:21 8,8 C 87 % 1014,1 hPa 0,0 l/m 10,1 km/h (2 Bft) W-SW 247 6,8 C 7,2 C
08.11.2012 22:26 8,8 C 87 % 1013,9 hPa 0,0 l/m 11,9 km/h (2 Bft) W-SW 247 6,8 C 6,9 C
08.11.2012 22:31 8,8 C 87 % 1014,0 hPa 0,0 l/m 15,8 km/h (3 Bft) W 270 6,8 C 6,3 C
08.11.2012 22:36 8,9 C 87 % 1014,0 hPa 0,0 l/m 16,9 km/h (3 Bft) W-NW 292 6,9 C 6,3 C
08.11.2012 22:41 8,9 C 87 % 1014,1 hPa 0,0 l/m 14,8 km/h (3 Bft) W-SW 247 6,9 C 6,6 C
08.11.2012 22:46 8,9 C 87 % 1014,1 hPa 0,0 l/m 20,9 km/h (4 Bft) W-SW 247 6,9 C 5,9 C
08.11.2012 22:51 8,9 C 87 % 1013,9 hPa 0,0 l/m 12,6 km/h (3 Bft) W-SW 247 6,9 C 6,9 C
08.11.2012 22:56 8,9 C 87 % 1014,0 hPa 0,0 l/m 3,6 km/h (1 Bft) W 270 6,9 C 8,9 C
08.11.2012 23:01 8,8 C 87 % 1014,2 hPa 0,0 l/m 21,6 km/h (4 Bft) W 270 6,8 C 5,7 C
08.11.2012 23:06 8,8 C 87 % 1014,0 hPa 0,0 l/m 11,2 km/h (2 Bft) W-SW 247 6,8 C 7,0 C
08.11.2012 23:11 8,8 C 87 % 1014,1 hPa 0,0 l/m 19,4 km/h (3 Bft) W 270 6,8 C 5,9 C
08.11.2012 23:16 8,8 C 87 % 1014,2 hPa 0,0 l/m 18,0 km/h (3 Bft) W 270 6,8 C 6,1 C
08.11.2012 23:21 8,8 C 87 % 1014,1 hPa 0,0 l/m 12,6 km/h (3 Bft) W-SW 247 6,8 C 6,8 C
08.11.2012 23:26 8,8 C 87 % 1014,1 hPa 0,0 l/m 4,7 km/h (1 Bft) W 270 6,8 C 8,5 C
08.11.2012 23:31 8,8 C 87 % 1014,2 hPa 0,0 l/m 5,8 km/h (2 Bft) W 270 6,8 C 8,1 C
08.11.2012 23:36 8,8 C 87 % 1014,2 hPa 0,0 l/m 23,0 km/h (4 Bft) W 270 6,8 C 5,6 C
08.11.2012 23:41 8,8 C 87 % 1014,3 hPa 0,0 l/m 11,2 km/h (2 Bft) W 270 6,8 C 7,0 C
08.11.2012 23:46 8,8 C 87 % 1014,3 hPa 0,0 l/m 12,6 km/h (3 Bft) W-SW 247 6,8 C 6,8 C
08.11.2012 23:51 8,8 C 87 % 1014,3 hPa 0,0 l/m 10,8 km/h (2 Bft) S-SW 202 6,8 C 7,1 C
08.11.2012 23:56 8,8 C 87 % 1014,1 hPa 0,0 l/m 9,7 km/h (2 Bft) W-SW 247 6,8 C 7,3 C
_ Min-Zeit 21:31 10:16 16:11 - 21:01 - - 03:56 04:41
Minimum _ 8,6 C 76 % 1013,5 hPa - 3,6 km/h (1 Bft) - - 5,0 C 4,8 C
_ Max-Zeit 12:41 21:31 00:11 00:01 06:21 - - 21:16 21:01
Maximum _ 10,0 C 88 % 1019,3 hPa 0,0 l/m 33,8 km/h
W (5 Bft)
- - 6,9 C 9,1 C
Durchschnitt _ 9,2 C 80 % 1015,6 hPa #0,0 l/m 16,1 km/h (3 Bft) W-SW - 6,0 C 6,9 C
(c) by David Heller